sensor_id;sensor_type;location;lat;lon;timestamp;pressure;altitude;pressure_sealevel;temperature;humidity
54666;BME280;40566;50.006;36.180;2023-04-28T00:04:46;99094.97;;;14.38;69.61
54666;BME280;40566;50.006;36.180;2023-04-28T00:09:46;99104.69;;;14.34;69.75
54666;BME280;40566;50.006;36.180;2023-04-28T00:14:47;99098.06;;;14.28;69.72
54666;BME280;40566;50.006;36.180;2023-04-28T00:19:48;99089.75;;;14.22;69.92
54666;BME280;40566;50.006;36.180;2023-04-28T00:24:49;99097.63;;;14.20;69.94
54666;BME280;40566;50.006;36.180;2023-04-28T00:29:50;99104.50;;;14.21;70.21
54666;BME280;40566;50.006;36.180;2023-04-28T00:34:51;99106.34;;;14.19;70.58
54666;BME280;40566;50.006;36.180;2023-04-28T00:39:55;99096.94;;;14.17;70.46
54666;BME280;40566;50.006;36.180;2023-04-28T00:44:56;99119.84;;;14.10;70.65
54666;BME280;40566;50.006;36.180;2023-04-28T00:49:58;99118.88;;;13.95;71.16
54666;BME280;40566;50.006;36.180;2023-04-28T00:54:58;99131.25;;;13.90;71.53
54666;BME280;40566;50.006;36.180;2023-04-28T00:59:59;99138.72;;;13.80;71.66
54666;BME280;40566;50.006;36.180;2023-04-28T01:05:01;99134.28;;;13.82;71.40
54666;BME280;40566;50.006;36.180;2023-04-28T01:10:01;99132.66;;;13.80;71.16
54666;BME280;40566;50.006;36.180;2023-04-28T01:15:03;99128.53;;;13.76;71.01
54666;BME280;40566;50.006;36.180;2023-04-28T01:20:05;99125.34;;;13.71;70.92
54666;BME280;40566;50.006;36.180;2023-04-28T01:25:06;99131.00;;;13.61;71.13
54666;BME280;40566;50.006;36.180;2023-04-28T01:30:07;99137.28;;;13.57;70.75
54666;BME280;40566;50.006;36.180;2023-04-28T01:35:08;99136.72;;;13.51;70.98
54666;BME280;40566;50.006;36.180;2023-04-28T01:40:09;99144.81;;;13.44;71.14
54666;BME280;40566;50.006;36.180;2023-04-28T01:45:10;99143.34;;;13.39;71.34
54666;BME280;40566;50.006;36.180;2023-04-28T01:50:11;99146.25;;;13.33;71.04
54666;BME280;40566;50.006;36.180;2023-04-28T01:55:12;99161.16;;;13.29;71.13
54666;BME280;40566;50.006;36.180;2023-04-28T02:00:12;99151.97;;;13.22;71.25
54666;BME280;40566;50.006;36.180;2023-04-28T02:05:13;99143.41;;;13.20;71.41
54666;BME280;40566;50.006;36.180;2023-04-28T02:10:14;99140.09;;;13.16;70.95
54666;BME280;40566;50.006;36.180;2023-04-28T02:15:14;99135.91;;;13.14;71.64
54666;BME280;40566;50.006;36.180;2023-04-28T02:20:16;99134.56;;;13.05;72.20
54666;BME280;40566;50.006;36.180;2023-04-28T02:25:16;99139.47;;;13.11;72.07
54666;BME280;40566;50.006;36.180;2023-04-28T02:30:17;99143.34;;;13.02;72.12
54666;BME280;40566;50.006;36.180;2023-04-28T02:35:18;99151.78;;;13.07;71.81
54666;BME280;40566;50.006;36.180;2023-04-28T02:40:19;99163.78;;;13.10;71.80
54666;BME280;40566;50.006;36.180;2023-04-28T02:45:19;99168.03;;;13.11;71.94
54666;BME280;40566;50.006;36.180;2023-04-28T02:50:20;99165.31;;;13.14;71.87
54666;BME280;40566;50.006;36.180;2023-04-28T02:55:21;99169.50;;;13.17;72.40
54666;BME280;40566;50.006;36.180;2023-04-28T03:00:23;99167.59;;;13.20;72.86
54666;BME280;40566;50.006;36.180;2023-04-28T03:05:24;99189.00;;;13.25;73.04
54666;BME280;40566;50.006;36.180;2023-04-28T03:10:24;99203.41;;;13.33;72.93
54666;BME280;40566;50.006;36.180;2023-04-28T03:15:25;99205.34;;;13.46;72.75
54666;BME280;40566;50.006;36.180;2023-04-28T03:20:26;99207.72;;;13.51;72.91
54666;BME280;40566;50.006;36.180;2023-04-28T03:25:26;99213.63;;;13.55;73.12
54666;BME280;40566;50.006;36.180;2023-04-28T03:30:27;99221.72;;;13.66;72.81
54666;BME280;40566;50.006;36.180;2023-04-28T03:35:27;99228.16;;;13.76;72.70
54666;BME280;40566;50.006;36.180;2023-04-28T03:40:28;99230.47;;;13.82;72.84
54666;BME280;40566;50.006;36.180;2023-04-28T03:45:28;99237.25;;;13.85;72.97
54666;BME280;40566;50.006;36.180;2023-04-28T03:50:29;99225.09;;;13.85;73.28
54666;BME280;40566;50.006;36.180;2023-04-28T03:55:30;99240.47;;;13.90;73.37
54666;BME280;40566;50.006;36.180;2023-04-28T04:00:30;99243.00;;;13.92;73.41
54666;BME280;40566;50.006;36.180;2023-04-28T04:05:31;99247.22;;;13.94;73.58
54666;BME280;40566;50.006;36.180;2023-04-28T04:10:31;99248.50;;;13.85;74.10
54666;BME280;40566;50.006;36.180;2023-04-28T04:15:32;99237.72;;;14.11;73.54
54666;BME280;40566;50.006;36.180;2023-04-28T04:20:33;99243.75;;;14.28;73.34
54666;BME280;40566;50.006;36.180;2023-04-28T04:25:34;99241.41;;;14.57;72.26
54666;BME280;40566;50.006;36.180;2023-04-28T04:30:35;99258.94;;;14.71;72.34
54666;BME280;40566;50.006;36.180;2023-04-28T04:35:35;99260.59;;;14.55;72.52
54666;BME280;40566;50.006;36.180;2023-04-28T04:40:36;99267.91;;;14.48;72.98
54666;BME280;40566;50.006;36.180;2023-04-28T04:45:36;99266.06;;;14.50;73.02
54666;BME280;40566;50.006;36.180;2023-04-28T04:50:38;99277.78;;;14.59;72.84
54666;BME280;40566;50.006;36.180;2023-04-28T04:55:38;99277.47;;;14.65;72.49
54666;BME280;40566;50.006;36.180;2023-04-28T05:00:39;99293.72;;;14.86;72.25
54666;BME280;40566;50.006;36.180;2023-04-28T05:05:40;99293.66;;;14.87;72.23
54666;BME280;40566;50.006;36.180;2023-04-28T05:10:41;99289.56;;;14.66;72.78
54666;BME280;40566;50.006;36.180;2023-04-28T05:15:41;99292.69;;;14.73;72.79
54666;BME280;40566;50.006;36.180;2023-04-28T05:20:42;99299.50;;;14.75;72.58
54666;BME280;40566;50.006;36.180;2023-04-28T05:25:42;99302.13;;;14.75;72.59
54666;BME280;40566;50.006;36.180;2023-04-28T05:30:43;99296.47;;;14.83;72.33
54666;BME280;40566;50.006;36.180;2023-04-28T05:35:44;99291.34;;;14.65;73.03
54666;BME280;40566;50.006;36.180;2023-04-28T05:40:45;99279.91;;;14.68;73.01
54666;BME280;40566;50.006;36.180;2023-04-28T05:45:45;99276.66;;;14.80;72.54
54666;BME280;40566;50.006;36.180;2023-04-28T05:50:46;99276.59;;;14.82;72.90
54666;BME280;40566;50.006;36.180;2023-04-28T05:55:47;99279.06;;;15.01;72.20
54666;BME280;40566;50.006;36.180;2023-04-28T06:00:47;99280.31;;;15.10;72.23
54666;BME280;40566;50.006;36.180;2023-04-28T06:05:48;99292.59;;;15.23;71.85
54666;BME280;40566;50.006;36.180;2023-04-28T06:10:49;99291.09;;;15.19;72.19
54666;BME280;40566;50.006;36.180;2023-04-28T06:15:49;99311.19;;;15.49;71.18
54666;BME280;40566;50.006;36.180;2023-04-28T06:20:50;99318.59;;;15.57;70.86
54666;BME280;40566;50.006;36.180;2023-04-28T06:25:51;99328.75;;;15.45;70.83
54666;BME280;40566;50.006;36.180;2023-04-28T06:30:51;99337.25;;;15.65;70.20
54666;BME280;40566;50.006;36.180;2023-04-28T06:35:52;99355.56;;;15.63;70.64
54666;BME280;40566;50.006;36.180;2023-04-28T06:40:53;99364.78;;;15.86;69.95
54666;BME280;40566;50.006;36.180;2023-04-28T06:45:53;99360.56;;;16.00;69.31
54666;BME280;40566;50.006;36.180;2023-04-28T06:50:54;99352.81;;;15.66;70.37
54666;BME280;40566;50.006;36.180;2023-04-28T06:55:55;99343.06;;;15.54;70.61
54666;BME280;40566;50.006;36.180;2023-04-28T07:00:55;99344.00;;;15.85;69.91
54666;BME280;40566;50.006;36.180;2023-04-28T07:05:59;99342.03;;;16.04;69.14
54666;BME280;40566;50.006;36.180;2023-04-28T07:10:59;99326.91;;;16.25;68.26
54666;BME280;40566;50.006;36.180;2023-04-28T07:16:03;99330.59;;;16.52;68.02
54666;BME280;40566;50.006;36.180;2023-04-28T07:21:04;99323.81;;;16.63;67.38
54666;BME280;40566;50.006;36.180;2023-04-28T07:26:05;99310.59;;;16.81;66.71
54666;BME280;40566;50.006;36.180;2023-04-28T07:31:06;99309.88;;;16.93;66.61
54666;BME280;40566;50.006;36.180;2023-04-28T07:36:06;99300.44;;;17.05;66.15
54666;BME280;40566;50.006;36.180;2023-04-28T07:41:07;99308.84;;;17.10;66.45
54666;BME280;40566;50.006;36.180;2023-04-28T07:46:08;99313.84;;;17.28;66.06
54666;BME280;40566;50.006;36.180;2023-04-28T07:51:08;99325.72;;;17.60;64.98
54666;BME280;40566;50.006;36.180;2023-04-28T07:56:09;99325.97;;;17.84;64.35
54666;BME280;40566;50.006;36.180;2023-04-28T08:01:11;99327.72;;;18.11;63.32
54666;BME280;40566;50.006;36.180;2023-04-28T08:06:12;99334.69;;;18.38;62.42
54666;BME280;40566;50.006;36.180;2023-04-28T08:11:13;99338.94;;;18.26;62.88
54666;BME280;40566;50.006;36.180;2023-04-28T08:16:14;99328.31;;;18.02;63.05
54666;BME280;40566;50.006;36.180;2023-04-28T08:21:14;99324.66;;;17.77;63.80
54666;BME280;40566;50.006;36.180;2023-04-28T08:26:15;99325.06;;;17.57;63.97
54666;BME280;40566;50.006;36.180;2023-04-28T08:31:16;99322.75;;;17.52;63.74
54666;BME280;40566;50.006;36.180;2023-04-28T08:36:17;99334.72;;;17.56;63.67
54666;BME280;40566;50.006;36.180;2023-04-28T08:41:18;99338.28;;;17.41;63.82
54666;BME280;40566;50.006;36.180;2023-04-28T08:46:20;99323.59;;;17.53;63.31
54666;BME280;40566;50.006;36.180;2023-04-28T08:51:34;99319.91;;;17.84;62.59
54666;BME280;40566;50.006;36.180;2023-04-28T08:56:38;99332.88;;;18.13;62.32
54666;BME280;40566;50.006;36.180;2023-04-28T09:01:38;99317.91;;;18.28;61.37
54666;BME280;40566;50.006;36.180;2023-04-28T09:06:39;99322.44;;;18.38;61.02
54666;BME280;40566;50.006;36.180;2023-04-28T09:11:59;99314.69;;;18.37;60.85
54666;BME280;40566;50.006;36.180;2023-04-28T09:17:01;99313.81;;;18.36;60.94
54666;BME280;40566;50.006;36.180;2023-04-28T09:22:03;99316.78;;;18.45;60.86
54666;BME280;40566;50.006;36.180;2023-04-28T09:27:06;99308.06;;;18.31;60.82
54666;BME280;40566;50.006;36.180;2023-04-28T09:32:18;99317.38;;;18.22;60.88
54666;BME280;40566;50.006;36.180;2023-04-28T09:37:23;99322.22;;;18.29;60.86
54666;BME280;40566;50.006;36.180;2023-04-28T09:42:43;99322.22;;;18.29;60.74
54666;BME280;40566;50.006;36.180;2023-04-28T09:47:45;99323.28;;;18.52;60.88
54666;BME280;40566;50.006;36.180;2023-04-28T09:52:56;99311.88;;;18.78;59.75
54666;BME280;40566;50.006;36.180;2023-04-28T09:58:01;99312.72;;;18.79;59.76
54666;BME280;40566;50.006;36.180;2023-04-28T10:03:04;99311.03;;;18.78;59.49
54666;BME280;40566;50.006;36.180;2023-04-28T10:08:05;99308.03;;;18.84;59.31
54666;BME280;40566;50.006;36.180;2023-04-28T10:13:07;99301.94;;;18.83;58.99
54666;BME280;40566;50.006;36.180;2023-04-28T10:18:10;99301.81;;;18.72;59.39
54666;BME280;40566;50.006;36.180;2023-04-28T10:28:50;99296.91;;;18.80;59.50
54666;BME280;40566;50.006;36.180;2023-04-28T10:33:51;99307.66;;;18.50;60.07
54666;BME280;40566;50.006;36.180;2023-04-28T10:39:08;99297.19;;;18.37;60.52
54666;BME280;40566;50.006;36.180;2023-04-28T11:00:27;99279.97;;;17.80;61.38
54666;BME280;40566;50.006;36.180;2023-04-28T11:05:28;99272.72;;;17.71;62.08
54666;BME280;40566;50.006;36.180;2023-04-28T11:16:16;99253.72;;;17.55;62.31
54666;BME280;40566;50.006;36.180;2023-04-28T11:21:18;99270.78;;;17.33;63.07
54666;BME280;40566;50.006;36.180;2023-04-28T11:26:19;99267.66;;;17.14;63.41
54666;BME280;40566;50.006;36.180;2023-04-28T11:31:22;99247.59;;;17.00;63.89
54666;BME280;40566;50.006;36.180;2023-04-28T11:36:30;99244.53;;;16.93;63.93
54666;BME280;40566;50.006;36.180;2023-04-28T11:41:33;99236.88;;;17.04;63.79
54666;BME280;40566;50.006;36.180;2023-04-28T11:46:34;99240.28;;;17.19;63.41
54666;BME280;40566;50.006;36.180;2023-04-28T11:51:37;99241.94;;;17.35;63.57
54666;BME280;40566;50.006;36.180;2023-04-28T11:56:38;99230.50;;;17.23;63.72
54666;BME280;40566;50.006;36.180;2023-04-28T12:01:49;99216.59;;;17.22;63.84
54666;BME280;40566;50.006;36.180;2023-04-28T12:12:03;99197.75;;;17.84;62.89
54666;BME280;40566;50.006;36.180;2023-04-28T12:17:04;99201.97;;;18.26;61.96
54666;BME280;40566;50.006;36.180;2023-04-28T12:22:05;99193.69;;;18.32;61.49
54666;BME280;40566;50.006;36.180;2023-04-28T12:27:19;99196.09;;;18.22;61.98
54666;BME280;40566;50.006;36.180;2023-04-28T12:32:38;99199.88;;;18.18;62.16
54666;BME280;40566;50.006;36.180;2023-04-28T12:37:40;99213.88;;;18.81;60.59
54666;BME280;40566;50.006;36.180;2023-04-28T12:42:41;99219.19;;;19.29;59.33
54666;BME280;40566;50.006;36.180;2023-04-28T12:47:42;99206.69;;;19.09;60.22
54666;BME280;40566;50.006;36.180;2023-04-28T12:52:42;99220.50;;;19.48;59.11
54666;BME280;40566;50.006;36.180;2023-04-28T12:57:43;99213.88;;;18.94;59.93
54666;BME280;40566;50.006;36.180;2023-04-28T13:02:43;99208.66;;;18.55;60.72
54666;BME280;40566;50.006;36.180;2023-04-28T13:07:44;99211.41;;;18.41;60.69
54666;BME280;40566;50.006;36.180;2023-04-28T13:12:45;99218.53;;;18.13;61.40
54666;BME280;40566;50.006;36.180;2023-04-28T13:17:47;99216.28;;;17.94;61.68
54666;BME280;40566;50.006;36.180;2023-04-28T13:22:47;99239.97;;;17.66;62.55
54666;BME280;40566;50.006;36.180;2023-04-28T13:27:48;99232.31;;;17.35;63.21
54666;BME280;40566;50.006;36.180;2023-04-28T13:32:49;99230.72;;;17.05;63.59
54666;BME280;40566;50.006;36.180;2023-04-28T13:37:51;99227.16;;;16.78;64.15
54666;BME280;40566;50.006;36.180;2023-04-28T13:42:55;99232.13;;;16.54;64.14
54666;BME280;40566;50.006;36.180;2023-04-28T13:47:56;99234.16;;;16.34;64.63
54666;BME280;40566;50.006;36.180;2023-04-28T13:52:57;99247.66;;;16.12;65.13
54666;BME280;40566;50.006;36.180;2023-04-28T13:57:58;99261.78;;;15.94;65.83
54666;BME280;40566;50.006;36.180;2023-04-28T14:03:02;99261.56;;;15.82;66.41
54666;BME280;40566;50.006;36.180;2023-04-28T14:08:03;99274.41;;;15.70;66.78
54666;BME280;40566;50.006;36.180;2023-04-28T14:13:03;99283.00;;;15.56;67.59
54666;BME280;40566;50.006;36.180;2023-04-28T14:18:04;99281.25;;;15.40;68.51
54666;BME280;40566;50.006;36.180;2023-04-28T14:23:05;99291.25;;;15.32;69.24
54666;BME280;40566;50.006;36.180;2023-04-28T14:28:06;99269.63;;;15.30;69.36
54666;BME280;40566;50.006;36.180;2023-04-28T14:33:07;99248.72;;;15.16;70.18
54666;BME280;40566;50.006;36.180;2023-04-28T14:38:08;99231.16;;;15.03;70.50
54666;BME280;40566;50.006;36.180;2023-04-28T14:43:08;99215.78;;;14.99;70.81
54666;BME280;40566;50.006;36.180;2023-04-28T14:48:09;99212.59;;;14.94;71.40
54666;BME280;40566;50.006;36.180;2023-04-28T14:53:10;99214.16;;;14.80;71.92
54666;BME280;40566;50.006;36.180;2023-04-28T14:58:11;99202.41;;;14.73;71.91
54666;BME280;40566;50.006;36.180;2023-04-28T15:03:14;99179.41;;;14.65;72.19
54666;BME280;40566;50.006;36.180;2023-04-28T15:08:15;99180.09;;;14.52;72.61
54666;BME280;40566;50.006;36.180;2023-04-28T15:13:16;99172.84;;;14.41;72.91
54666;BME280;40566;50.006;36.180;2023-04-28T15:18:16;99171.22;;;14.22;73.25
54666;BME280;40566;50.006;36.180;2023-04-28T15:23:17;99162.97;;;14.14;73.30
54666;BME280;40566;50.006;36.180;2023-04-28T15:28:19;99163.69;;;14.00;73.83
54666;BME280;40566;50.006;36.180;2023-04-28T15:33:37;99167.44;;;13.95;74.35
54666;BME280;40566;50.006;36.180;2023-04-28T15:38:38;99173.66;;;13.92;74.02
54666;BME280;40566;50.006;36.180;2023-04-28T15:43:41;99175.88;;;13.82;74.19
54666;BME280;40566;50.006;36.180;2023-04-28T15:48:43;99175.31;;;13.76;75.00
54666;BME280;40566;50.006;36.180;2023-04-28T15:53:44;99198.97;;;13.71;74.92
54666;BME280;40566;50.006;36.180;2023-04-28T15:58:44;99195.44;;;13.72;75.10
54666;BME280;40566;50.006;36.180;2023-04-28T16:03:46;99178.94;;;13.73;75.01
54666;BME280;40566;50.006;36.180;2023-04-28T16:08:47;99160.56;;;13.76;74.67
54666;BME280;40566;50.006;36.180;2023-04-28T16:13:47;99183.19;;;13.74;75.06
54666;BME280;40566;50.006;36.180;2023-04-28T16:18:49;99188.56;;;13.71;74.91
54666;BME280;40566;50.006;36.180;2023-04-28T16:23:51;99185.19;;;13.69;74.84
54666;BME280;40566;50.006;36.180;2023-04-28T16:28:51;99204.47;;;13.65;74.90
54666;BME280;40566;50.006;36.180;2023-04-28T16:33:52;99217.38;;;13.66;74.93
54666;BME280;40566;50.006;36.180;2023-04-28T16:38:53;99222.03;;;13.60;74.93
54666;BME280;40566;50.006;36.180;2023-04-28T16:43:53;99229.88;;;13.58;75.02
54666;BME280;40566;50.006;36.180;2023-04-28T16:48:54;99237.00;;;13.55;74.97
54666;BME280;40566;50.006;36.180;2023-04-28T16:53:54;99251.75;;;13.54;75.15
54666;BME280;40566;50.006;36.180;2023-04-28T16:58:55;99261.22;;;13.55;74.80
54666;BME280;40566;50.006;36.180;2023-04-28T17:03:55;99259.69;;;13.51;74.91
54666;BME280;40566;50.006;36.180;2023-04-28T17:08:56;99260.84;;;13.45;75.14
54666;BME280;40566;50.006;36.180;2023-04-28T17:13:59;99249.75;;;13.42;75.09
54666;BME280;40566;50.006;36.180;2023-04-28T17:19:01;99249.88;;;13.39;74.94
54666;BME280;40566;50.006;36.180;2023-04-28T17:24:01;99253.75;;;13.30;75.11
54666;BME280;40566;50.006;36.180;2023-04-28T17:29:02;99245.16;;;13.28;75.28
54666;BME280;40566;50.006;36.180;2023-04-28T17:34:04;99245.22;;;13.26;75.42
54666;BME280;40566;50.006;36.180;2023-04-28T17:39:04;99243.63;;;13.24;75.29
54666;BME280;40566;50.006;36.180;2023-04-28T17:44:05;99250.66;;;13.22;75.37
54666;BME280;40566;50.006;36.180;2023-04-28T17:49:06;99258.56;;;13.19;75.39
54666;BME280;40566;50.006;36.180;2023-04-28T17:54:06;99266.28;;;13.20;74.84
54666;BME280;40566;50.006;36.180;2023-04-28T17:59:08;99260.25;;;13.20;74.83
54666;BME280;40566;50.006;36.180;2023-04-28T18:04:09;99255.50;;;13.10;75.20
54666;BME280;40566;50.006;36.180;2023-04-28T18:09:10;99261.19;;;13.00;75.42
54666;BME280;40566;50.006;36.180;2023-04-28T18:14:11;99249.16;;;12.97;75.54
54666;BME280;40566;50.006;36.180;2023-04-28T18:19:11;99245.78;;;12.95;75.39
54666;BME280;40566;50.006;36.180;2023-04-28T18:24:13;99245.03;;;12.93;75.58
54666;BME280;40566;50.006;36.180;2023-04-28T18:29:13;99254.50;;;12.94;75.50
54666;BME280;40566;50.006;36.180;2023-04-28T18:34:14;99248.50;;;12.94;75.40
54666;BME280;40566;50.006;36.180;2023-04-28T18:39:15;99259.97;;;12.88;75.37
54666;BME280;40566;50.006;36.180;2023-04-28T18:44:17;99250.94;;;12.78;75.40
54666;BME280;40566;50.006;36.180;2023-04-28T18:49:18;99252.94;;;12.71;75.38
54666;BME280;40566;50.006;36.180;2023-04-28T18:54:19;99250.34;;;12.71;75.45
54666;BME280;40566;50.006;36.180;2023-04-28T18:59:19;99246.91;;;12.70;75.29
54666;BME280;40566;50.006;36.180;2023-04-28T19:04:20;99246.41;;;12.62;75.38
54666;BME280;40566;50.006;36.180;2023-04-28T19:09:21;99241.56;;;12.55;75.67
54666;BME280;40566;50.006;36.180;2023-04-28T19:14:22;99233.06;;;12.51;75.98
54666;BME280;40566;50.006;36.180;2023-04-28T19:19:23;99235.66;;;12.51;75.85
54666;BME280;40566;50.006;36.180;2023-04-28T19:24:23;99240.03;;;12.50;75.82
54666;BME280;40566;50.006;36.180;2023-04-28T19:29:24;99238.47;;;12.46;75.99
54666;BME280;40566;50.006;36.180;2023-04-28T19:34:24;99235.28;;;12.40;76.20
54666;BME280;40566;50.006;36.180;2023-04-28T19:39:26;99244.00;;;12.39;76.52
54666;BME280;40566;50.006;36.180;2023-04-28T19:44:26;99233.72;;;12.36;76.24
54666;BME280;40566;50.006;36.180;2023-04-28T19:49:27;99237.25;;;12.35;76.72
54666;BME280;40566;50.006;36.180;2023-04-28T19:54:28;99246.53;;;12.40;76.51
54666;BME280;40566;50.006;36.180;2023-04-28T19:59:29;99247.16;;;12.45;76.14
54666;BME280;40566;50.006;36.180;2023-04-28T20:04:29;99241.56;;;12.34;76.21
54666;BME280;40566;50.006;36.180;2023-04-28T20:09:34;99240.63;;;12.37;76.27
54666;BME280;40566;50.006;36.180;2023-04-28T20:14:35;99239.97;;;12.32;76.36
54666;BME280;40566;50.006;36.180;2023-04-28T20:19:36;99251.53;;;12.24;76.31
54666;BME280;40566;50.006;36.180;2023-04-28T20:24:38;99249.00;;;12.23;76.31
54666;BME280;40566;50.006;36.180;2023-04-28T20:29:39;99257.88;;;12.17;76.35
54666;BME280;40566;50.006;36.180;2023-04-28T20:34:41;99250.16;;;12.16;76.26
54666;BME280;40566;50.006;36.180;2023-04-28T20:39:41;99263.38;;;12.09;76.13
54666;BME280;40566;50.006;36.180;2023-04-28T20:44:42;99265.19;;;12.07;76.21
54666;BME280;40566;50.006;36.180;2023-04-28T20:49:43;99260.22;;;12.03;76.20
54666;BME280;40566;50.006;36.180;2023-04-28T20:54:44;99266.59;;;11.94;76.11
54666;BME280;40566;50.006;36.180;2023-04-28T20:59:46;99268.34;;;11.94;76.07
54666;BME280;40566;50.006;36.180;2023-04-28T21:04:46;99262.63;;;11.85;75.79
54666;BME280;40566;50.006;36.180;2023-04-28T21:09:47;99259.25;;;11.83;75.98
54666;BME280;40566;50.006;36.180;2023-04-28T21:14:47;99251.78;;;11.76;75.96
54666;BME280;40566;50.006;36.180;2023-04-28T21:19:48;99253.53;;;11.75;75.68
54666;BME280;40566;50.006;36.180;2023-04-28T21:24:49;99246.91;;;11.68;75.95
54666;BME280;40566;50.006;36.180;2023-04-28T21:29:50;99259.19;;;11.63;75.75
54666;BME280;40566;50.006;36.180;2023-04-28T21:34:51;99255.34;;;11.51;75.83
54666;BME280;40566;50.006;36.180;2023-04-28T21:39:52;99264.03;;;11.50;76.05
54666;BME280;40566;50.006;36.180;2023-04-28T21:44:52;99271.78;;;11.50;75.84
54666;BME280;40566;50.006;36.180;2023-04-28T21:49:53;99264.63;;;11.57;75.59
54666;BME280;40566;50.006;36.180;2023-04-28T21:54:53;99279.50;;;11.51;75.40
54666;BME280;40566;50.006;36.180;2023-04-28T21:59:54;99275.16;;;11.52;75.59
54666;BME280;40566;50.006;36.180;2023-04-28T22:04:55;99270.81;;;11.52;75.48
54666;BME280;40566;50.006;36.180;2023-04-28T22:09:56;99271.34;;;11.61;75.14
54666;BME280;40566;50.006;36.180;2023-04-28T22:14:56;99274.19;;;11.55;74.98
54666;BME280;40566;50.006;36.180;2023-04-28T22:19:57;99274.44;;;11.48;75.23
54666;BME280;40566;50.006;36.180;2023-04-28T22:24:58;99269.25;;;11.48;75.13
54666;BME280;40566;50.006;36.180;2023-04-28T22:29:59;99256.50;;;11.44;74.97
54666;BME280;40566;50.006;36.180;2023-04-28T22:35:00;99260.22;;;11.37;74.95
54666;BME280;40566;50.006;36.180;2023-04-28T22:40:00;99266.22;;;11.37;74.93
54666;BME280;40566;50.006;36.180;2023-04-28T22:45:01;99253.78;;;11.25;75.20
54666;BME280;40566;50.006;36.180;2023-04-28T22:50:03;99251.97;;;11.27;75.12
54666;BME280;40566;50.006;36.180;2023-04-28T22:55:05;99253.72;;;11.26;75.15
54666;BME280;40566;50.006;36.180;2023-04-28T23:00:07;99257.31;;;11.22;75.30
54666;BME280;40566;50.006;36.180;2023-04-28T23:05:07;99259.88;;;11.24;75.21
54666;BME280;40566;50.006;36.180;2023-04-28T23:10:08;99264.81;;;11.30;75.00
54666;BME280;40566;50.006;36.180;2023-04-28T23:15:10;99263.97;;;11.29;74.73
54666;BME280;40566;50.006;36.180;2023-04-28T23:20:11;99274.00;;;11.15;75.12
54666;BME280;40566;50.006;36.180;2023-04-28T23:25:11;99275.06;;;11.09;75.06
54666;BME280;40566;50.006;36.180;2023-04-28T23:30:12;99288.13;;;11.06;75.09
54666;BME280;40566;50.006;36.180;2023-04-28T23:35:12;99282.81;;;11.09;74.85
54666;BME280;40566;50.006;36.180;2023-04-28T23:40:13;99282.03;;;11.07;74.62
54666;BME280;40566;50.006;36.180;2023-04-28T23:45:14;99277.78;;;11.06;74.66
54666;BME280;40566;50.006;36.180;2023-04-28T23:50:15;99281.47;;;10.99;74.88
54666;BME280;40566;50.006;36.180;2023-04-28T23:55:16;99277.31;;;10.95;75.12
